Time;durP1;ratioP1;P1;durP2;ratioP2;P2;SDS_P1;SDS_P2;PMS_P1;PMS_P2;Temp;Humidity;BMP_temperature;BMP_pressure;BME280_temperature;BME280_humidity;BME280_pressure;Samples;Min_cycle;Max_cycle;Signal;HPM_P1;HPM_P2
2022/02/03 00:01:18;;;;;;;;;;;;;;;4.48;100.00;99474.91;5028475;28;20037;-69
2022/02/03 00:03:55;;;;;;;20.77;9.82;;;;;;;4.35;100.00;99455.66;5030994;28;20007;-69
2022/02/03 00:06:32;;;;;;;20.05;9.88;;;;;;;4.27;100.00;99459.06;5031009;28;20061;-69
2022/02/03 00:11:43;;;;;;;18.85;9.95;;;;;;;4.40;100.00;99472.09;5030911;28;20471;-69
2022/02/03 00:25:02;;;;;;;16.92;11.00;;;;;;;4.46;100.00;99478.75;5031444;28;20033;-69
2022/02/03 00:30:32;;;;;;;22.08;11.65;;;;;;;4.39;100.00;99473.09;5030052;28;20095;-69
2022/02/03 00:48:53;;;;;;;25.83;12.25;;;;;;;4.83;100.00;99446.50;5030608;28;20389;-69
2022/02/03 00:51:20;;;;;;;20.52;11.75;;;;;;;4.84;100.00;99456.22;5010550;28;20033;-69
2022/02/03 00:53:47;;;;;;;20.88;11.32;;;;;;;4.74;100.00;99456.31;5010789;28;20030;-69
2022/02/03 00:56:14;;;;;;;20.90;11.20;;;;;;;4.70;100.00;99459.44;5027409;28;20033;-69
2022/02/03 00:58:45;;;;;;;18.50;10.82;;;;;;;4.65;100.00;99454.50;5028872;28;20048;-69
2022/02/03 01:01:16;;;;;;;18.42;11.05;;;;;;;4.68;100.00;99450.69;5029277;28;20029;-69
2022/02/03 01:03:42;;;;;;;23.73;12.98;;;;;;;4.68;100.00;99464.09;5029576;28;20033;-69
2022/02/03 01:06:12;;;;;;;22.73;12.68;;;;;;;4.73;100.00;99456.44;5028591;28;20048;-69
2022/02/03 01:08:42;;;;;;;23.42;12.18;;;;;;;4.68;100.00;99456.06;5028203;28;20060;-69
2022/02/03 01:11:16;;;;;;;17.52;10.10;;;;;;;4.68;100.00;99458.72;5028718;28;20112;-69
2022/02/03 01:13:49;;;;;;;18.45;9.93;;;;;;;4.61;100.00;99456.66;5028986;28;20116;-69
2022/02/03 01:16:41;;;;;;;20.17;11.13;;;;;;;4.51;100.00;99446.97;5029132;28;20030;-69
2022/02/03 01:19:26;;;;;;;20.48;11.60;;;;;;;4.43;100.00;99434.34;5025149;28;20045;-69
2022/02/03 01:44:19;;;;;;;27.23;14.30;;;;;;;4.79;100.00;99445.97;5020673;28;20091;-69
2022/02/03 01:46:55;;;;;;;28.58;14.32;;;;;;;4.80;100.00;99442.28;5028777;28;20021;-69
2022/02/03 01:51:37;;;;;;;32.00;15.05;;;;;;;4.78;100.00;99438.09;5030671;28;20029;-69
2022/02/03 01:52:11;;;;;;;26.67;14.73;;;;;;;4.83;100.00;99428.59;5035862;28;20033;-69
2022/02/03 01:54:37;;;;;;;31.60;16.55;;;;;;;4.80;100.00;99410.13;5050845;28;20040;-69
2022/02/03 01:57:11;;;;;;;32.38;15.85;;;;;;;4.85;100.00;99423.09;5032403;28;20018;-69
2022/02/03 01:59:37;;;;;;;33.10;16.73;;;;;;;4.88;100.00;99409.38;5036718;28;20018;-69
2022/02/03 02:02:06;;;;;;;30.15;14.88;;;;;;;4.95;100.00;99409.59;5052615;28;20108;-69
2022/02/03 02:04:56;;;;;;;25.48;13.57;;;;;;;5.00;100.00;99401.94;5050940;28;20036;-70
2022/02/03 02:07:40;;;;;;;30.50;16.20;;;;;;;5.05;100.00;99405.00;5032044;28;20025;-69
2022/02/03 02:10:37;;;;;;;27.25;14.02;;;;;;;5.08;100.00;99412.72;5022657;28;20555;-69
2022/02/03 02:38:42;;;;;;;24.73;14.52;;;;;;;5.20;100.00;99391.91;5029275;28;20121;-69
2022/02/03 02:44:06;;;;;;;25.98;13.65;;;;;;;5.23;100.00;99386.22;5028352;28;20022;-69
2022/02/03 02:46:41;;;;;;;26.85;14.45;;;;;;;5.38;100.00;99389.19;5013770;28;20037;-69
2022/02/03 02:49:48;;;;;;;24.50;13.40;;;;;;;5.30;100.00;99391.81;5027886;28;20025;-69
2022/02/03 02:52:20;;;;;;;24.23;13.02;;;;;;;5.30;100.00;99381.94;5046984;28;20026;-69
2022/02/03 02:58:23;;;;;;;21.48;12.18;;;;;;;5.22;100.00;99380.03;5051333;28;20033;-69
2022/02/03 03:01:53;;;;;;;21.45;12.55;;;;;;;5.21;100.00;99375.66;5051759;28;20036;-70
2022/02/03 03:28:50;;;;;;;24.73;12.73;;;;;;;5.28;100.00;99382.06;5053024;28;20379;-69
2022/02/03 03:34:55;;;;;;;27.13;14.52;;;;;;;5.33;100.00;99348.56;5032031;28;20091;-69
2022/02/03 03:38:04;;;;;;;23.85;13.98;;;;;;;5.24;100.00;99336.97;5030196;28;20037;-69
2022/02/03 03:40:11;;;;;;;22.35;13.07;;;;;;;5.41;100.00;99352.16;5024919;28;20039;-69
2022/02/03 03:42:39;;;;;;;22.88;13.27;;;;;;;5.40;100.00;99345.13;5031286;28;20037;-69
2022/02/03 03:45:08;;;;;;;20.05;11.40;;;;;;;5.33;100.00;99341.38;5031615;28;20091;-69
2022/02/03 03:47:36;;;;;;;24.00;14.40;;;;;;;5.40;100.00;99360.38;5030701;28;20102;-69
2022/02/03 03:50:13;;;;;;;21.83;13.35;;;;;;;5.41;100.00;99352.16;5029389;28;20029;-69
2022/02/03 03:53:04;;;;;;;25.75;15.48;;;;;;;5.42;100.00;99343.13;5029364;28;20095;-69
2022/02/03 03:55:43;;;;;;;25.67;13.77;;;;;;;5.34;100.00;99344.88;5026746;28;20115;-69
2022/02/03 04:57:16;;;;;;;18.73;11.88;;;;;;;5.62;100.00;99306.16;5025959;28;20415;-76
2022/02/03 05:03:28;;;;;;;19.73;11.45;;;;;;;5.64;100.00;99304.16;5019266;28;20037;-77
2022/02/03 05:06:13;;;;;;;21.10;13.05;;;;;;;5.57;100.00;99295.06;5023421;28;20048;-75
2022/02/03 05:12:06;;;;;;;21.05;12.82;;;;;;;5.59;100.00;99297.59;5022421;28;20021;-74
2022/02/03 05:18:17;;;;;;;18.67;11.45;;;;;;;5.57;100.00;99303.13;5025722;28;20041;-74
2022/02/03 05:45:51;;;;;;;21.63;12.27;;;;;;;5.51;100.00;99252.75;5016601;28;20026;-78
2022/02/03 05:48:39;;;;;;;20.17;11.40;;;;;;;5.48;100.00;99245.03;5023575;28;20547;-76
2022/02/03 06:04:51;;;;;;;25.05;11.20;;;;;;;5.26;100.00;99257.13;5031410;28;20105;-78
2022/02/03 06:07:41;;;;;;;19.00;11.23;;;;;;;5.16;100.00;99251.03;5030426;28;20037;-76
2022/02/03 06:23:30;;;;;;;21.48;11.63;;;;;;;5.34;100.00;99243.75;5019863;28;20096;-73
2022/02/03 06:28:47;;;;;;;20.10;11.90;;;;;;;5.31;100.00;99246.78;5013655;28;20505;-74
2022/02/03 06:31:13;;;;;;;16.85;11.40;;;;;;;5.26;100.00;99241.03;5028675;28;20403;-74
2022/02/03 06:33:38;;;;;;;19.35;11.02;;;;;;;5.32;100.00;99248.47;5032682;28;20090;-75
2022/02/03 06:36:03;;;;;;;18.77;11.30;;;;;;;5.40;100.00;99245.84;5031870;28;20464;-76
2022/02/03 06:38:30;;;;;;;18.63;10.57;;;;;;;5.38;100.00;99250.50;5027110;28;20021;-76
2022/02/03 06:40:56;;;;;;;17.33;9.30;;;;;;;5.34;100.00;99235.72;5024014;28;20167;-79
2022/02/03 06:43:21;;;;;;;15.88;9.95;;;;;;;5.26;100.00;99228.47;5023676;28;20056;-78
2022/02/03 06:45:57;;;;;;;16.58;9.70;;;;;;;5.43;100.00;99229.41;5026077;28;20026;-76
2022/02/03 06:48:24;;;;;;;19.88;9.77;;;;;;;5.28;100.00;99222.94;5026208;28;20155;-78
2022/02/03 06:50:55;;;;;;;17.48;9.93;;;;;;;5.44;100.00;99232.94;5027046;28;20033;-78
2022/02/03 06:53:24;;;;;;;19.13;10.55;;;;;;;5.63;100.00;99221.97;5024182;28;20033;-74
2022/02/03 06:55:56;;;;;;;19.42;10.82;;;;;;;5.50;100.00;99237.66;5023574;28;20446;-75
2022/02/03 06:58:27;;;;;;;16.17;10.38;;;;;;;5.44;100.00;99228.41;5035475;28;20097;-76
2022/02/03 07:03:21;;;;;;;17.77;10.35;;;;;;;5.45;100.00;99235.47;5034977;28;20022;-77
2022/02/03 07:05:46;;;;;;;14.20;9.98;;;;;;;5.52;100.00;99241.00;5033472;28;20529;-73
2022/02/03 07:08:16;;;;;;;18.02;10.63;;;;;;;5.51;100.00;99238.50;5032185;28;20041;-74
2022/02/03 07:10:41;;;;;;;16.33;9.27;;;;;;;5.53;100.00;99233.81;5034392;28;20020;-75
2022/02/03 07:13:08;;;;;;;13.27;8.88;;;;;;;5.63;100.00;99251.50;5031663;28;20403;-75
2022/02/03 07:15:35;;;;;;;16.83;9.52;;;;;;;5.58;100.00;99236.84;5031732;28;20044;-79
2022/02/03 07:18:02;;;;;;;14.85;9.45;;;;;;;5.63;100.00;99248.81;5024589;28;20026;-77
2022/02/03 07:20:29;;;;;;;14.65;9.35;;;;;;;5.74;100.00;99255.72;5033852;28;20044;-76
2022/02/03 07:22:55;;;;;;;16.92;10.13;;;;;;;5.67;100.00;99227.84;5034730;28;20025;-76
2022/02/03 07:25:20;;;;;;;14.38;9.50;;;;;;;5.77;100.00;99235.78;5035682;28;20045;-76
2022/02/03 07:27:46;;;;;;;15.90;10.27;;;;;;;5.82;100.00;99233.44;5034466;28;20037;-74
2022/02/03 07:30:12;;;;;;;15.35;9.98;;;;;;;5.88;100.00;99244.38;5035646;28;20025;-74
2022/02/03 07:32:38;;;;;;;16.67;9.73;;;;;;;5.88;100.00;99240.84;5034437;28;20060;-77
2022/02/03 07:35:04;;;;;;;18.45;11.05;;;;;;;5.85;100.00;99239.31;5034052;28;20025;-76
2022/02/03 07:37:30;;;;;;;15.38;9.25;;;;;;;5.75;100.00;99225.19;5032953;28;20540;-73
2022/02/03 07:39:57;;;;;;;15.85;9.60;;;;;;;5.92;100.00;99240.38;5050499;28;20033;-73
2022/02/03 07:42:23;;;;;;;13.45;8.25;;;;;;;5.97;100.00;99228.31;5054422;28;20028;-72
2022/02/03 07:44:48;;;;;;;14.90;9.07;;;;;;;5.86;100.00;99216.81;5037106;28;20014;-73
2022/02/03 07:47:15;;;;;;;17.23;8.80;;;;;;;6.05;100.00;99220.25;5051769;28;20053;-74
2022/02/03 07:49:40;;;;;;;14.63;9.25;;;;;;;6.21;100.00;99206.88;5053176;28;20036;-73
2022/02/03 07:52:06;;;;;;;12.85;8.25;;;;;;;6.36;100.00;99199.84;5050134;28;20041;-73
2022/02/03 07:54:32;;;;;;;13.50;8.60;;;;;;;6.40;100.00;99203.03;5042708;28;20034;-72
2022/02/03 07:57:01;;;;;;;15.20;9.02;;;;;;;6.26;100.00;99185.75;5050224;28;20033;-74
2022/02/03 07:59:28;;;;;;;15.40;9.27;;;;;;;6.24;100.00;99182.38;5047448;28;20158;-74
2022/02/03 08:01:53;;;;;;;12.75;7.78;;;;;;;6.18;100.00;99161.53;5039848;28;20035;-74
2022/02/03 08:04:23;;;;;;;11.70;7.60;;;;;;;6.38;100.00;99191.63;5041084;28;20026;-72
2022/02/03 08:06:50;;;;;;;13.98;7.40;;;;;;;6.44;100.00;99187.41;5052158;28;20037;-72
2022/02/03 08:09:45;;;;;;;13.38;6.63;;;;;;;6.32;100.00;99163.56;5048810;28;20030;-73
2022/02/03 08:12:09;;;;;;;15.55;8.05;;;;;;;6.38;100.00;99148.63;5039171;28;20040;-73
2022/02/03 08:14:41;;;;;;;11.93;7.18;;;;;;;6.62;100.00;99141.56;5047038;28;20059;-81
2022/02/03 08:17:24;;;;;;;11.00;6.28;;;;;;;6.67;100.00;99158.00;5053745;28;20029;-77
2022/02/03 08:20:00;;;;;;;9.50;6.20;;;;;;;6.72;100.00;99159.19;5041370;28;20036;-71
2022/02/03 08:22:34;;;;;;;11.02;6.20;;;;;;;6.67;100.00;99158.00;5049868;28;20026;-73
2022/02/03 08:25:32;;;;;;;10.70;6.43;;;;;;;6.61;100.00;99156.00;5040285;28;20025;-75
2022/02/03 08:28:25;;;;;;;12.25;6.95;;;;;;;6.61;100.00;99167.59;5023191;28;20052;-75
2022/02/03 08:30:47;;;;;;;11.95;7.35;;;;;;;6.77;100.00;99172.97;5031602;28;20084;-75
2022/02/03 08:33:20;;;;;;;12.55;8.23;;;;;;;6.83;100.00;99159.84;5032464;28;20411;-75
2022/02/03 08:35:49;;;;;;;13.77;8.00;;;;;;;6.93;100.00;99153.25;5030341;28;20029;-74
2022/02/03 08:39:05;;;;;;;9.15;6.28;;;;;;;7.12;100.00;99148.50;5029004;28;20108;-76
2022/02/03 08:41:02;;;;;;;10.68;6.70;;;;;;;7.28;100.00;99158.38;5022801;28;20091;-71
2022/02/03 08:43:32;;;;;;;9.73;6.22;;;;;;;7.49;100.00;99169.41;5014234;28;20033;-75
2022/02/03 08:46:04;;;;;;;9.73;6.30;;;;;;;7.48;100.00;99151.56;5029206;28;20060;-75
2022/02/03 08:48:30;;;;;;;11.90;5.65;;;;;;;7.59;100.00;99178.09;5028486;28;20033;-75
2022/02/03 08:50:56;;;;;;;10.55;5.00;;;;;;;7.56;100.00;99167.69;5026270;28;20028;-73
2022/02/03 08:53:28;;;;;;;8.38;4.82;;;;;;;7.71;100.00;99154.34;5022047;28;20025;-74
2022/02/03 08:56:23;;;;;;;8.50;5.05;;;;;;;7.94;100.00;99166.97;5024306;28;20049;-74
2022/02/03 09:44:57;;;;;;;7.57;3.72;;;;;;;8.81;93.12;99112.75;5019329;28;20053;-74
2022/02/03 09:56:32;;;;;;;6.68;3.95;;;;;;;9.83;85.67;99070.44;5028030;28;20053;-76
2022/02/03 09:58:27;;;;;;;7.53;4.30;;;;;;;10.11;83.78;99064.25;5020352;28;20041;-77
2022/02/03 10:06:16;;;;;;;4.28;2.42;;;;;;;11.36;76.81;99041.78;5023071;28;20495;-75
2022/02/03 10:08:49;;;;;;;4.85;2.50;;;;;;;11.35;75.81;99064.50;5023147;28;20136;-77
2022/02/03 10:11:23;;;;;;;4.13;2.35;;;;;;;10.79;78.32;99067.31;5022196;28;20782;-73
2022/02/03 10:13:52;;;;;;;4.32;2.88;;;;;;;10.49;79.77;99081.06;5041622;28;20071;-73
2022/02/03 10:16:21;;;;;;;4.05;2.75;;;;;;;10.14;81.19;99085.53;5023195;28;22521;-75
2022/02/03 10:18:48;;;;;;;4.43;2.42;;;;;;;9.88;82.96;99056.38;5019288;28;20037;-76
2022/02/03 10:21:15;;;;;;;6.45;3.10;;;;;;;9.91;81.26;99071.34;5020028;28;20056;-73
2022/02/03 10:23:52;;;;;;;3.45;2.45;;;;;;;10.23;80.75;99059.19;5022115;28;20026;-76
2022/02/03 10:26:18;;;;;;;4.82;3.40;;;;;;;10.52;80.99;99044.66;5024247;28;20025;-76
2022/02/03 10:28:55;;;;;;;5.97;2.10;;;;;;;10.91;75.51;99062.19;5022151;28;20136;-77
2022/02/03 10:31:24;;;;;;;3.45;2.00;;;;;;;11.26;74.00;99044.03;5024405;28;20455;-75
2022/02/03 10:34:00;;;;;;;4.72;2.70;;;;;;;11.14;76.54;99038.38;5025978;28;20491;-77
2022/02/03 10:40:07;;;;;;;5.13;3.00;;;;;;;10.74;78.23;99019.22;5021086;28;20033;-74
2022/02/03 11:06:08;;;;;;;4.47;3.05;;;;;;;11.32;76.01;98918.66;5024025;28;20033;-75
2022/02/03 11:08:53;;;;;;;7.68;3.78;;;;;;;11.48;74.12;98922.84;5033269;28;20021;-77
2022/02/03 11:11:24;;;;;;;8.30;3.50;;;;;;;11.83;72.24;98918.06;5024513;28;20025;-77
2022/02/03 11:13:50;;;;;;;4.45;2.90;;;;;;;11.70;72.89;98930.78;5028200;28;20105;-77
2022/02/03 11:16:18;;;;;;;7.53;3.22;;;;;;;12.13;72.19;98922.25;5027420;28;20034;-75
2022/02/03 11:18:47;;;;;;;5.38;2.22;;;;;;;11.72;71.43;98915.97;5027547;28;20021;-75
2022/02/03 11:21:16;;;;;;;5.70;1.80;;;;;;;11.17;71.56;98913.41;5030632;28;20029;-75
2022/02/03 11:23:58;;;;;;;2.90;1.70;;;;;;;10.99;73.25;98896.91;5028688;28;20033;-75
2022/02/03 11:26:52;;;;;;;3.33;2.20;;;;;;;10.70;74.90;98898.03;5027566;28;20029;-75
2022/02/03 11:30:00;;;;;;;2.05;1.45;;;;;;;10.62;75.42;98915.28;5030006;28;20052;-75
2022/02/03 11:32:38;;;;;;;3.25;1.38;;;;;;;10.64;75.62;98904.28;5030938;28;20109;-74
2022/02/03 11:38:21;;;;;;;2.10;1.38;;;;;;;10.37;74.27;98866.25;5027154;28;20044;-75
2022/02/03 11:49:16;;;;;;;3.55;1.40;;;;;;;10.40;76.34;98867.72;5022553;28;20049;-74
2022/02/03 11:54:58;;;;;;;3.90;1.73;;;;;;;10.97;73.86;98861.06;5032280;28;20037;-74
2022/02/03 11:57:39;;;;;;;2.00;1.40;;;;;;;10.83;73.01;98849.38;5032913;28;20021;-74
2022/02/03 12:00:39;;;;;;;2.40;1.52;;;;;;;10.66;73.36;98857.03;5035962;28;20029;-77
2022/02/03 12:03:10;;;;;;;2.42;1.50;;;;;;;10.60;74.06;98822.66;5031900;28;20403;-71
2022/02/03 12:16:38;;;;;;;4.47;1.80;;;;;;;10.55;72.77;98835.13;5030222;28;20041;-70
2022/02/03 12:21:47;;;;;;;2.25;1.50;;;;;;;10.60;73.52;98811.84;5038280;28;20025;-75
2022/02/03 12:25:04;;;;;;;2.95;1.50;;;;;;;10.51;73.72;98808.47;5021904;28;20037;-75
2022/02/03 12:30:02;;;;;;;2.90;1.33;;;;;;;9.78;75.25;98785.66;5022170;28;20029;-76
2022/02/03 12:40:52;;;;;;;2.35;1.77;;;;;;;10.07;75.55;98798.06;5020921;28;20107;-71
2022/02/03 12:45:47;;;;;;;3.85;1.50;;;;;;;9.96;75.84;98772.44;5021084;28;20044;-76
2022/02/03 12:48:13;;;;;;;3.05;1.70;;;;;;;10.07;76.55;98766.47;5020985;28;20388;-68
2022/02/03 12:50:40;;;;;;;2.30;1.60;;;;;;;9.87;76.33;98755.53;5028287;28;20032;-68
2022/02/03 12:53:07;;;;;;;3.10;1.80;;;;;;;10.13;75.68;98750.47;5017944;28;20084;-68
2022/02/03 12:55:39;;;;;;;3.30;2.00;;;;;;;10.20;75.50;98746.75;5026673;28;20136;-68
2022/02/03 12:58:14;;;;;;;3.30;2.40;;;;;;;10.60;74.21;98748.78;5028655;28;20565;-68
2022/02/03 13:01:00;;;;;;;8.55;2.25;;;;;;;10.67;74.01;98731.53;5018196;28;20021;-71
2022/02/03 13:03:36;;;;;;;5.60;2.35;;;;;;;11.13;73.44;98755.09;5022519;28;20033;-71
2022/02/03 13:06:05;;;;;;;9.07;2.28;;;;;;;11.24;71.87;98750.94;5029712;28;20983;-70
2022/02/03 13:08:35;;;;;;;2.67;2.03;;;;;;;11.20;71.30;98730.72;5029530;28;20044;-72
2022/02/03 13:13:55;;;;;;;3.28;2.03;;;;;;;10.86;72.51;98712.81;5029336;28;20483;-69
2022/02/03 13:16:21;;;;;;;2.95;1.80;;;;;;;11.13;72.37;98719.03;5027648;28;20117;-67
2022/02/03 13:19:00;;;;;;;5.25;2.35;;;;;;;11.28;72.16;98713.41;5028384;28;20037;-68
2022/02/03 13:21:35;;;;;;;2.65;2.03;;;;;;;11.42;71.42;98706.94;5036263;28;20117;-68
2022/02/03 13:24:15;;;;;;;3.50;2.00;;;;;;;10.85;72.82;98719.28;5043365;28;20029;-68
2022/02/03 13:26:40;;;;;;;4.72;2.40;;;;;;;10.40;74.24;98716.25;5046022;28;20193;-68
2022/02/03 13:29:09;;;;;;;3.55;2.13;;;;;;;10.38;75.27;98715.66;5041940;28;20510;-68
2022/02/03 13:31:54;;;;;;;5.13;2.20;;;;;;;10.39;76.21;98704.63;5035822;28;20026;-68
2022/02/03 13:34:32;;;;;;;2.75;1.95;;;;;;;10.41;75.72;98686.31;5045152;28;20059;-68
2022/02/03 13:37:14;;;;;;;4.63;2.00;;;;;;;10.37;75.31;98695.03;5042963;28;20033;-68
2022/02/03 13:39:48;;;;;;;2.65;1.70;;;;;;;10.31;76.20;98680.47;5035250;28;20021;-68
2022/02/03 13:42:15;;;;;;;3.55;2.10;;;;;;;10.16;76.79;98672.50;5033363;28;20072;-67
2022/02/03 13:44:41;;;;;;;3.70;1.90;;;;;;;10.11;76.50;98669.56;5048256;28;20025;-67
2022/02/03 13:47:39;;;;;;;2.70;1.90;;;;;;;9.95;78.21;98678.03;5051889;28;20068;-67
2022/02/03 13:50:22;;;;;;;4.22;2.70;;;;;;;10.06;77.78;98678.31;5007739;28;20034;-67
2022/02/03 14:15:03;;;;;;;2.80;1.90;;;;;;;9.96;78.91;98677.03;5025375;28;20491;-68
2022/02/03 14:22:39;;;;;;;2.67;1.95;;;;;;;10.21;77.53;98658.38;5017109;28;20120;-66
2022/02/03 14:27:51;;;;;;;4.20;2.28;;;;;;;10.17;78.06;98662.53;5025151;28;20091;-67
2022/02/03 14:30:18;;;;;;;6.18;2.22;;;;;;;10.10;77.92;98657.09;5026600;28;20108;-67
2022/02/03 14:32:44;;;;;;;3.53;2.30;;;;;;;10.03;78.94;98664.34;5025585;28;20068;-66
2022/02/03 14:35:11;;;;;;;3.08;1.80;;;;;;;9.85;79.33;98660.34;5020277;28;20034;-67
2022/02/03 14:37:46;;;;;;;3.75;2.13;;;;;;;9.79;80.61;98658.44;5023905;28;20036;-67
2022/02/03 14:40:25;;;;;;;3.42;2.17;;;;;;;9.71;80.34;98657.78;5023647;28;20175;-67
2022/02/03 14:42:50;;;;;;;4.93;1.80;;;;;;;9.80;80.07;98652.03;5018499;28;20024;-67
2022/02/03 14:45:18;;;;;;;3.25;1.67;;;;;;;9.64;80.48;98644.25;5013646;28;20037;-67
2022/02/03 14:47:43;;;;;;;4.75;1.80;;;;;;;9.64;80.93;98655.91;5022934;28;20463;-66
2022/02/03 14:50:11;;;;;;;3.92;2.22;;;;;;;9.49;81.06;98636.31;5018335;28;20033;-66
2022/02/03 14:53:28;;;;;;;3.38;2.03;;;;;;;9.58;81.55;98648.59;5015976;28;20104;-68
2022/02/03 14:58:25;;;;;;;4.10;1.75;;;;;;;9.59;81.00;98633.25;5030872;28;20637;-67
2022/02/03 15:00:51;;;;;;;5.85;2.22;;;;;;;9.48;81.59;98628.38;5029061;28;20530;-67
2022/02/03 15:03:19;;;;;;;5.40;2.50;;;;;;;9.39;82.15;98630.44;5023481;28;20114;-67
2022/02/03 15:05:45;;;;;;;3.38;2.08;;;;;;;9.27;83.05;98626.63;5028479;28;20036;-67
2022/02/03 15:08:19;;;;;;;4.03;2.25;;;;;;;9.27;82.83;98611.25;5029070;28;20619;-68
2022/02/03 15:15:50;;;;;;;10.43;5.18;;;;;;;9.12;83.99;98632.16;5023881;28;20033;-68
2022/02/03 15:18:17;;;;;;;4.07;2.50;;;;;;;9.07;85.47;98637.31;5016086;28;20037;-68
2022/02/03 15:20:43;;;;;;;3.95;1.85;;;;;;;9.02;86.46;98646.00;5032204;28;20112;-67
2022/02/03 15:23:08;;;;;;;2.50;1.70;;;;;;;9.02;86.69;98648.69;5016783;28;20121;-69
2022/02/03 15:25:34;;;;;;;2.60;1.55;;;;;;;9.11;85.34;98606.19;5030616;28;20395;-69
2022/02/03 15:27:59;;;;;;;4.05;1.90;;;;;;;9.00;86.33;98623.78;5030148;28;20040;-68
2022/02/03 15:30:25;;;;;;;6.13;2.33;;;;;;;8.91;86.88;98617.69;5028140;28;20127;-67
2022/02/03 15:32:51;;;;;;;3.83;1.85;;;;;;;8.80;87.95;98615.53;5032310;28;20017;-67
2022/02/03 15:35:27;;;;;;;5.15;2.38;;;;;;;8.74;88.51;98621.72;5027528;28;20041;-67
2022/02/03 15:37:53;;;;;;;5.97;2.00;;;;;;;8.69;88.87;98624.16;5015445;28;20033;-70
2022/02/03 15:40:22;;;;;;;3.47;2.10;;;;;;;8.61;89.53;98624.31;5032206;28;20041;-67
2022/02/03 15:43:04;;;;;;;5.97;2.22;;;;;;;8.57;90.01;98631.97;5017581;28;20476;-68
2022/02/03 15:45:35;;;;;;;3.55;2.20;;;;;;;8.39;90.49;98618.94;5022906;28;20028;-69
2022/02/03 15:48:09;;;;;;;7.25;2.92;;;;;;;8.33;91.46;98625.06;5022506;28;20026;-70
2022/02/03 16:17:09;;;;;;;4.15;1.67;;;;;;;7.37;99.04;98567.91;5032030;28;20060;-69
2022/02/03 16:22:44;;;;;;;5.38;2.65;;;;;;;7.33;100.00;98582.75;5030782;28;20029;-69
2022/02/03 16:25:14;;;;;;;7.20;2.38;;;;;;;7.21;100.00;98587.81;5024269;28;20033;-69
2022/02/03 16:42:26;;;;;;;10.40;4.25;;;;;;;7.04;100.00;98605.97;5024750;28;20095;-68
2022/02/03 16:52:39;;;;;;;9.52;3.42;;;;;;;6.83;100.00;98627.38;5031214;28;20079;-68
2022/02/03 16:55:09;;;;;;;8.52;3.25;;;;;;;6.72;100.00;98632.19;5028064;28;20631;-68
2022/02/03 16:57:34;;;;;;;10.73;5.13;;;;;;;6.62;100.00;98631.63;5022390;28;20061;-68
2022/02/03 17:00:05;;;;;;;10.65;4.95;;;;;;;6.52;100.00;98626.53;5023918;28;20022;-69
2022/02/03 17:02:31;;;;;;;4.32;3.15;;;;;;;6.52;100.00;98637.25;5025210;28;20040;-68
2022/02/03 17:04:57;;;;;;;6.38;3.15;;;;;;;6.46;100.00;98631.78;5025763;28;20029;-68
2022/02/03 17:07:23;;;;;;;4.75;2.90;;;;;;;6.39;100.00;98620.06;5023078;28;20141;-68
2022/02/03 17:09:49;;;;;;;3.88;2.35;;;;;;;6.32;100.00;98634.22;5019668;28;20116;-68
2022/02/03 17:12:16;;;;;;;9.00;3.50;;;;;;;6.21;100.00;98625.75;5023969;28;20395;-68
2022/02/03 17:14:42;;;;;;;17.38;8.48;;;;;;;6.21;100.00;98623.06;5028697;28;20087;-68
2022/02/03 17:17:07;;;;;;;16.67;8.38;;;;;;;6.29;100.00;98637.28;5030739;28;20029;-68
2022/02/03 17:19:32;;;;;;;12.35;6.90;;;;;;;6.30;100.00;98633.56;5031094;28;20135;-68
2022/02/03 17:21:58;;;;;;;9.68;4.70;;;;;;;6.34;100.00;98634.88;5031720;28;20033;-68
2022/02/03 17:24:23;;;;;;;5.85;3.40;;;;;;;6.39;100.00;98636.19;5030013;28;20033;-68
2022/02/03 17:27:02;;;;;;;8.85;3.50;;;;;;;6.43;100.00;98626.75;5027945;28;20025;-68
2022/02/03 17:29:42;;;;;;;;;;;;;;;6.45;100.00;98641.69;5008458;28;20091;-67
2022/02/03 17:32:22;;;;;;;8.40;3.05;;;;;;;6.57;100.00;98644.75;5011193;28;19921;-68
2022/02/03 18:10:49;;;;;;;12.27;6.20;;;;;;;6.96;100.00;98635.66;4995062;28;20102;-68
2022/02/03 18:29:59;;;;;;;5.15;3.35;;;;;;;6.93;97.27;98644.09;5017678;28;20033;-68
2022/02/03 18:56:38;;;;;;;6.32;3.20;;;;;;;5.99;100.00;98622.06;5018906;28;20624;-68
2022/02/03 19:13:14;;;;;;;5.38;3.65;;;;;;;6.00;100.00;98618.34;5040005;28;20002;-68
2022/02/03 20:08:15;;;;;;;13.00;6.75;;;;;;;5.42;100.00;98609.75;5032762;28;20029;-69
2022/02/03 20:10:45;;;;;;;10.15;5.47;;;;;;;5.43;100.00;98606.91;5030554;28;20030;-69
2022/02/03 20:13:11;;;;;;;10.48;5.40;;;;;;;5.35;100.00;98595.41;5032692;28;20581;-69
2022/02/03 20:15:41;;;;;;;10.70;5.50;;;;;;;5.41;100.00;98614.31;5022162;28;20100;-69
2022/02/03 20:18:14;;;;;;;9.30;5.97;;;;;;;5.37;100.00;98615.69;5022413;28;20064;-69
2022/02/03 20:20:41;;;;;;;9.25;5.47;;;;;;;5.51;100.00;98610.59;5017773;28;20099;-69
2022/02/03 20:23:12;;;;;;;9.57;6.32;;;;;;;5.46;100.00;98614.63;5022667;28;20065;-69
2022/02/03 20:25:40;;;;;;;10.98;6.68;;;;;;;5.49;100.00;98619.63;5021348;28;20383;-68
2022/02/03 20:28:07;;;;;;;10.80;6.53;;;;;;;5.53;100.00;98627.31;5022367;28;20072;-69
2022/02/03 20:30:33;;;;;;;11.38;6.72;;;;;;;5.57;100.00;98620.59;5021945;28;20065;-68
2022/02/03 20:32:58;;;;;;;14.30;8.50;;;;;;;5.60;100.00;98604.16;5024133;28;20025;-68
2022/02/03 20:35:24;;;;;;;19.15;9.95;;;;;;;5.68;100.00;98614.81;5026668;28;20116;-69
2022/02/03 20:37:49;;;;;;;17.45;9.35;;;;;;;5.83;100.00;98621.13;5024069;28;20053;-67
2022/02/03 20:40:15;;;;;;;17.58;9.10;;;;;;;5.71;100.00;98609.09;5019050;28;20034;-68
2022/02/03 20:42:40;;;;;;;14.52;8.23;;;;;;;5.85;100.00;98616.41;5018686;28;20476;-68
2022/02/03 20:45:06;;;;;;;17.85;8.70;;;;;;;5.84;100.00;98616.56;5021337;28;20104;-68
2022/02/03 20:47:32;;;;;;;16.75;7.45;;;;;;;5.89;100.00;98622.25;5025080;28;20112;-68
2022/02/03 20:50:04;;;;;;;11.23;6.97;;;;;;;5.79;100.00;98621.63;5029518;28;20556;-69
2022/02/03 20:52:29;;;;;;;12.80;7.28;;;;;;;5.76;100.00;98622.00;5029112;28;20026;-68
2022/02/03 20:54:55;;;;;;;8.05;4.82;;;;;;;5.87;100.00;98618.94;5042889;28;20101;-69
2022/02/03 20:57:20;;;;;;;6.43;4.05;;;;;;;5.90;100.00;98613.19;5047044;28;20025;-68
2022/02/03 21:05:07;;;;;;;7.53;4.32;;;;;;;5.79;100.00;98568.81;5026219;23;20049;-73
2022/02/03 21:07:33;;;;;;;6.03;4.25;;;;;;;6.13;100.00;98614.06;5008712;28;20076;-73
2022/02/03 21:10:02;;;;;;;6.53;4.10;;;;;;;5.93;100.00;98554.63;5009968;28;20029;-73
2022/02/03 21:12:29;;;;;;;6.78;4.20;;;;;;;6.20;100.00;98608.78;5013364;28;20021;-75
2022/02/03 21:14:55;;;;;;;7.57;4.35;;;;;;;6.01;100.00;98582.44;5020216;28;20120;-73
2022/02/03 21:17:27;;;;;;;7.38;4.45;;;;;;;5.82;99.71;98544.28;5033447;28;20061;-75
2022/02/03 21:19:52;;;;;;;10.23;4.47;;;;;;;5.87;99.89;98549.94;5018331;28;20017;-74
2022/02/03 21:22:18;;;;;;;10.73;5.40;;;;;;;5.97;100.00;98575.75;5008152;28;20037;-74
2022/02/03 21:24:43;;;;;;;9.05;5.47;;;;;;;5.91;100.00;98580.78;5013836;28;20489;-74
2022/02/03 21:27:16;;;;;;;12.35;7.40;;;;;;;6.14;100.00;98604.16;5023074;28;20064;-74
2022/02/03 21:29:42;;;;;;;12.95;7.43;;;;;;;6.24;99.88;98595.88;5016120;28;20093;-74
2022/02/03 21:32:08;;;;;;;15.25;7.38;;;;;;;6.08;99.52;98572.66;5026041;28;20045;-74
2022/02/03 21:34:33;;;;;;;10.25;6.53;;;;;;;5.85;100.00;98560.03;5019341;28;20026;-75
2022/02/03 21:36:58;;;;;;;14.32;6.65;;;;;;;5.78;100.00;98553.69;4998585;28;20494;-75
2022/02/03 21:39:24;;;;;;;10.73;6.30;;;;;;;5.98;100.00;98580.94;5008381;28;20030;-74
2022/02/03 21:41:49;;;;;;;11.15;5.45;;;;;;;5.98;100.00;98574.75;5003159;28;20018;-74
2022/02/03 21:44:15;;;;;;;8.80;5.18;;;;;;;5.90;100.00;98567.56;5000435;28;20491;-72
2022/02/03 21:46:44;;;;;;;7.07;4.15;;;;;;;6.07;100.00;98584.41;4998641;28;20034;-74
2022/02/03 21:49:09;;;;;;;8.77;4.35;;;;;;;5.94;100.00;98563.50;4995135;28;20029;-73
2022/02/03 21:51:41;;;;;;;7.00;3.80;;;;;;;6.13;100.00;98589.91;5007462;28;20541;-76
2022/02/03 21:54:08;;;;;;;7.82;4.22;;;;;;;5.89;100.00;98550.63;5026099;28;20029;-73
2022/02/03 21:56:33;;;;;;;5.57;3.28;;;;;;;5.76;100.00;98536.94;5023265;28;20030;-73
2022/02/03 21:59:03;;;;;;;5.82;3.50;;;;;;;6.12;100.00;98590.06;5008611;28;20037;-73
2022/02/03 22:01:29;;;;;;;6.03;4.00;;;;;;;6.00;100.00;98568.19;5007220;28;20037;-73